Huvudsida
METAR-TAF:

METAR-TAF

Flygplatser :

Ha'il, Saudiarabien

latitud: 27-26N, longitud: 041-41E, höjd: 1015 m

Aktuellt väderrapport

Denna rapport gjordes för 27 minuter sedan, klockan 21:00 UTC
Vind 4 kt från nordost
Temperatur 28°C
Fuktighet 22%
Tryck 1019 hPa
Sikt 10 km eller mer
Inga moln under 1 500 m eller inga cumulonimbus

METAR: OEHL 212100Z 04004KT CAVOK 28/04 Q1019

Tid: 00:27 (21:27 UTC)

Väderprognos

Denna rapport gjordes för 10 timmar och 27 minuter sedan, klockan 11:00 UTC
Prognos gäller från 21 kl. 12 UTC till 22 kl. 18 UTC
Vind 12 kt från syd/sydost
Sikt: 8000 m
Spridda moln på en höjd av 4000 ft
Temporärt
från 21 kl. 12 UTC till 21 kl. 18 UTC
Sikt: 3500 m
Få moln på en höjd av 3500 ft, Cumulonimbus.
högt damm drev, åska, regn
Blir
från 21 kl. 18 UTC till 21 kl. 20 UTC
Vind 8 kt från väst/nordväst

TAF: OEHL 211100Z 2112/2218 16012KT 8000 SCT040 TEMPO 2112/2118 3500 BLDU TSRA FEW035CB BECMG 2118/2120 30008KT

Aktuella väderrapporter och prognoser från 4000 flygplatser (METAR- och TAF-rapporter).

De tillgängliga stationerna syns som gula och röda prickar på kartan.

För musen över prickarna för att se namnen på stationerna.

Klicka sedan för att få väderrapporter och prognoser.

För att ändra kartan: Klicka på de gröna knapparna med ett svart kors på för att zooma in; den gröna knappen med ett streck på för att zooma ut; eller på de gröna pilarna för angränsande kartor.


METAR-TAF: